Time;durP1;ratioP1;P1;durP2;ratioP2;P2;SDS_P1;SDS_P2;PMS_P1;PMS_P2;Temp;Humidity;BMP_temperature;BMP_pressure;BME280_temperature;BME280_humidity;BME280_pressure;Samples;Min_cycle;Max_cycle;Signal;HPM_P1;HPM_P2
2023/03/18 00:01:57;;;;;;;16.77;12.40;;;13.00;1.00;;;;;;5053971;28;20112;-48
2023/03/18 00:04:23;;;;;;;17.38;10.70;;;13.00;1.00;;;;;;5053573;28;20025;-49
2023/03/18 00:06:49;;;;;;;17.80;11.52;;;12.90;1.00;;;;;;5054329;28;20382;-52
2023/03/18 00:09:16;;;;;;;17.65;11.65;;;12.90;1.00;;;;;;5051970;28;20025;-47
2023/03/18 00:11:42;;;;;;;19.52;12.48;;;12.90;1.00;;;;;;5054321;28;20017;-50
2023/03/18 00:14:08;;;;;;;16.75;12.68;;;12.90;1.00;;;;;;5053074;28;20049;-48
2023/03/18 00:16:35;;;;;;;16.80;11.60;;;12.90;1.00;;;;;;5054091;28;20116;-52
2023/03/18 00:19:02;;;;;;;23.55;12.57;;;12.80;1.00;;;;;;5051723;28;20029;-50
2023/03/18 00:21:29;;;;;;;18.75;12.50;;;12.80;1.00;;;;;;5043306;28;20451;-51
2023/03/18 00:23:55;;;;;;;22.63;12.85;;;12.80;1.00;;;;;;5053275;28;20037;-51
2023/03/18 00:26:23;;;;;;;16.58;12.32;;;12.90;1.00;;;;;;5046429;28;20025;-50
2023/03/18 00:28:49;;;;;;;20.25;13.35;;;12.80;1.00;;;;;;5053943;28;20024;-52
2023/03/18 00:31:15;;;;;;;19.70;12.02;;;12.80;1.00;;;;;;5043275;28;20029;-49
2023/03/18 00:33:44;;;;;;;19.60;13.63;;;12.70;1.00;;;;;;5052230;28;20036;-50
2023/03/18 00:36:15;;;;;;;21.88;13.35;;;12.80;1.00;;;;;;5052417;28;20028;-51
2023/03/18 00:38:42;;;;;;;22.75;12.63;;;12.80;1.00;;;;;;5049533;28;20108;-50
2023/03/18 00:41:14;;;;;;;19.17;13.40;;;12.80;1.00;;;;;;5034157;28;20413;-54
2023/03/18 00:43:52;;;;;;;20.33;14.73;;;12.70;1.00;;;;;;5049895;28;20020;-48
2023/03/18 00:46:28;;;;;;;21.13;13.95;;;12.70;1.00;;;;;;5053635;28;20028;-48
2023/03/18 00:48:56;;;;;;;21.98;14.77;;;12.70;1.00;;;;;;5050324;28;21955;-50
2023/03/18 00:51:23;;;;;;;19.55;14.38;;;12.60;1.00;;;;;;5051126;28;20513;-48
2023/03/18 00:53:52;;;;;;;25.27;15.85;;;12.70;1.00;;;;;;5053262;28;20070;-51
2023/03/18 00:56:20;;;;;;;22.65;15.25;;;12.60;1.00;;;;;;5050592;28;20048;-54
2023/03/18 00:58:48;;;;;;;19.08;14.30;;;12.70;1.00;;;;;;5051346;28;20043;-49
2023/03/18 01:01:14;;;;;;;22.10;13.93;;;12.60;1.00;;;;;;5053262;28;20057;-50
2023/03/18 01:03:41;;;;;;;21.63;15.40;;;12.60;1.00;;;;;;5040528;28;20091;-52
2023/03/18 01:06:10;;;;;;;26.67;16.25;;;12.50;1.00;;;;;;5052844;28;20111;-51
2023/03/18 01:08:36;;;;;;;21.67;15.38;;;12.60;1.00;;;;;;5048221;28;20017;-49
2023/03/18 01:11:02;;;;;;;25.27;16.73;;;12.60;1.00;;;;;;5051176;28;20036;-52
2023/03/18 01:13:28;;;;;;;25.42;17.65;;;12.50;1.00;;;;;;5052127;28;20074;-49
2023/03/18 01:15:55;;;;;;;25.88;16.33;;;12.60;1.00;;;;;;5049443;28;20064;-51
2023/03/18 01:18:22;;;;;;;24.13;16.45;;;12.50;1.00;;;;;;5053246;28;20021;-52
2023/03/18 01:20:48;;;;;;;25.88;16.38;;;12.50;1.00;;;;;;5051148;28;20051;-51
2023/03/18 01:23:14;;;;;;;24.90;17.75;;;12.50;1.00;;;;;;5053060;28;20099;-51
2023/03/18 01:25:40;;;;;;;27.02;18.13;;;12.40;1.00;;;;;;5049028;28;20422;-49
2023/03/18 01:28:06;;;;;;;24.45;18.33;;;12.40;1.00;;;;;;5051409;28;20033;-53
2023/03/18 01:30:34;;;;;;;26.38;18.77;;;12.40;1.00;;;;;;5050128;28;20402;-48
2023/03/18 01:33:01;;;;;;;28.15;17.75;;;12.40;1.00;;;;;;5052792;28;20029;-53
2023/03/18 01:35:27;;;;;;;21.02;16.75;;;12.40;1.00;;;;;;5051856;28;20039;-52
2023/03/18 01:37:53;;;;;;;24.45;16.75;;;12.30;1.00;;;;;;5052614;28;20037;-48
2023/03/18 01:40:19;;;;;;;25.77;16.85;;;12.30;1.00;;;;;;5051066;28;20131;-48
2023/03/18 01:42:56;;;;;;;24.25;17.63;;;12.30;1.00;;;;;;5053047;28;20040;-49
2023/03/18 01:45:27;;;;;;;29.15;18.55;;;12.30;1.00;;;;;;5048340;28;20032;-53
2023/03/18 01:47:54;;;;;;;22.45;17.38;;;12.30;1.00;;;;;;5052927;28;20112;-47
2023/03/18 01:50:42;;;;;;;26.92;18.73;;;12.30;1.00;;;;;;5040268;28;20021;-52
2023/03/18 01:53:13;;;;;;;32.40;19.33;;;12.30;1.00;;;;;;5047851;28;20124;-49
2023/03/18 01:55:39;;;;;;;23.35;17.88;;;12.30;1.00;;;;;;5048964;28;20041;-50
2023/03/18 01:58:27;;;;;;;24.70;18.52;;;12.30;1.00;;;;;;5052735;28;20017;-52
2023/03/18 02:01:22;;;;;;;29.17;19.42;;;12.20;1.00;;;;;;5051112;28;20029;-51
2023/03/18 02:03:49;;;;;;;28.00;18.08;;;12.10;1.00;;;;;;5052538;28;20393;-50
2023/03/18 02:06:15;;;;;;;26.70;18.70;;;12.20;1.00;;;;;;5051957;28;20033;-51
2023/03/18 02:08:41;;;;;;;27.92;18.92;;;12.20;1.00;;;;;;5052389;28;20055;-54
2023/03/18 02:11:09;;;;;;;25.67;18.42;;;12.10;1.00;;;;;;5050224;28;20025;-52
2023/03/18 02:13:40;;;;;;;28.08;19.02;;;12.10;1.00;;;;;;5052097;28;20102;-49
2023/03/18 02:16:20;;;;;;;25.38;18.48;;;12.10;1.00;;;;;;5050444;28;20498;-48
2023/03/18 02:18:55;;;;;;;26.85;19.35;;;12.10;1.00;;;;;;5051802;28;20021;-48
2023/03/18 02:21:30;;;;;;;28.83;20.63;;;12.10;1.00;;;;;;5049615;28;20044;-49
2023/03/18 02:24:16;;;;;;;27.38;19.08;;;12.10;1.00;;;;;;5051388;28;20032;-54
2023/03/18 02:27:06;;;;;;;29.58;20.05;;;12.10;1.00;;;;;;5052170;28;20031;-53
2023/03/18 02:29:35;;;;;;;26.95;19.02;;;12.00;1.00;;;;;;5055170;28;20419;-52
2023/03/18 02:32:03;;;;;;;24.70;17.65;;;12.00;1.00;;;;;;5053208;28;20025;-50
2023/03/18 02:34:29;;;;;;;27.05;19.70;;;11.90;1.00;;;;;;5054772;28;20436;-47
2023/03/18 02:36:56;;;;;;;25.67;19.75;;;12.00;1.00;;;;;;5055965;28;20037;-49
2023/03/18 02:39:21;;;;;;;28.23;19.10;;;12.00;1.00;;;;;;5054761;28;20386;-50
2023/03/18 02:41:47;;;;;;;24.75;19.05;;;12.00;1.00;;;;;;5055990;28;20071;-49
2023/03/18 02:44:13;;;;;;;26.27;19.38;;;12.00;1.00;;;;;;5053414;28;20359;-49
2023/03/18 02:46:54;;;;;;;27.05;20.10;;;12.00;1.00;;;;;;5052750;28;20029;-48
2023/03/18 02:49:25;;;;;;;27.47;19.83;;;12.00;1.00;;;;;;5054944;28;20021;-48
2023/03/18 02:51:50;;;;;;;29.48;19.85;;;12.00;1.00;;;;;;5049666;28;20026;-52
2023/03/18 02:54:20;;;;;;;29.05;19.45;;;11.90;1.00;;;;;;5048267;28;20029;-47
2023/03/18 02:56:46;;;;;;;27.17;18.95;;;11.90;1.00;;;;;;5042129;28;20090;-47
2023/03/18 02:59:12;;;;;;;26.42;19.70;;;11.90;1.00;;;;;;5053105;28;20034;-50
2023/03/18 03:01:42;;;;;;;28.40;19.80;;;12.00;1.00;;;;;;5054447;28;20040;-50
2023/03/18 03:04:08;;;;;;;27.90;20.38;;;11.90;1.00;;;;;;5055762;28;20492;-51
2023/03/18 03:06:35;;;;;;;32.28;19.75;;;11.90;1.00;;;;;;5051507;28;20044;-51
2023/03/18 03:09:02;;;;;;;25.65;19.42;;;11.90;1.00;;;;;;5054512;28;20091;-48
2023/03/18 03:11:28;;;;;;;27.55;20.63;;;11.90;1.00;;;;;;5055355;28;20087;-53
2023/03/18 03:13:54;;;;;;;31.13;20.92;;;11.80;1.00;;;;;;5054270;28;20049;-52
2023/03/18 03:16:20;;;;;;;27.70;19.77;;;11.80;1.00;;;;;;5055889;28;20106;-47
2023/03/18 03:18:46;;;;;;;27.58;20.23;;;11.90;1.00;;;;;;5053802;28;20036;-48
2023/03/18 03:21:14;;;;;;;25.45;17.60;;;11.90;1.00;;;;;;5045587;28;20443;-51
2023/03/18 03:23:40;;;;;;;24.08;17.27;;;11.80;1.00;;;;;;5055258;28;20029;-52
2023/03/18 03:26:06;;;;;;;27.98;15.57;;;11.90;1.00;;;;;;5053690;28;20025;-48
2023/03/18 03:28:32;;;;;;;27.33;18.00;;;11.80;1.00;;;;;;5054962;28;20503;-49
2023/03/18 03:30:58;;;;;;;27.10;18.50;;;11.80;1.00;;;;;;5053987;28;20067;-53
2023/03/18 03:33:26;;;;;;;26.55;19.48;;;11.80;1.00;;;;;;5054510;28;20033;-51
2023/03/18 03:35:52;;;;;;;27.50;19.60;;;11.80;1.00;;;;;;5053523;28;20524;-50
2023/03/18 03:38:18;;;;;;;31.15;20.50;;;11.80;1.00;;;;;;5053417;28;20025;-51
2023/03/18 03:40:46;;;;;;;27.63;18.02;;;11.90;1.00;;;;;;5052882;28;20474;-50
2023/03/18 03:43:13;;;;;;;25.07;16.23;;;11.90;1.00;;;;;;5040118;28;20059;-51
2023/03/18 03:45:39;;;;;;;24.67;15.18;;;11.90;1.00;;;;;;5054747;28;20032;-48
2023/03/18 03:48:05;;;;;;;20.70;14.85;;;11.80;1.00;;;;;;5053798;28;20071;-52
2023/03/18 03:50:31;;;;;;;20.17;14.30;;;11.80;1.00;;;;;;5035802;28;20033;-50
2023/03/18 03:52:57;;;;;;;21.55;14.85;;;11.80;1.00;;;;;;5050819;28;20036;-52
2023/03/18 03:55:23;;;;;;;18.42;13.85;;;11.70;1.00;;;;;;5053728;28;20421;-49
2023/03/18 03:57:50;;;;;;;20.95;14.90;;;11.70;1.00;;;;;;5040515;28;20087;-51
2023/03/18 04:00:20;;;;;;;23.92;15.00;;;11.70;1.00;;;;;;5047773;28;20037;-53
2023/03/18 04:02:46;;;;;;;22.15;15.43;;;11.70;1.00;;;;;;5047012;28;20037;-48
2023/03/18 04:05:15;;;;;;;24.95;15.55;;;11.60;1.00;;;;;;5051938;28;20074;-49
2023/03/18 04:07:41;;;;;;;21.63;15.15;;;11.60;1.00;;;;;;5052066;28;20108;-49
2023/03/18 04:10:09;;;;;;;22.13;15.07;;;11.70;1.00;;;;;;5051709;28;20124;-51
2023/03/18 04:12:36;;;;;;;25.35;15.55;;;11.70;1.00;;;;;;5053580;28;20017;-51
2023/03/18 04:15:02;;;;;;;22.88;15.70;;;11.70;1.00;;;;;;5051980;28;20072;-50
2023/03/18 04:17:28;;;;;;;23.13;16.52;;;11.70;1.00;;;;;;5054227;28;20037;-51
2023/03/18 04:19:54;;;;;;;21.77;16.65;;;11.60;1.00;;;;;;5052167;28;20519;-52
2023/03/18 04:22:20;;;;;;;25.10;17.73;;;11.60;1.00;;;;;;5053931;28;20028;-50
2023/03/18 04:24:46;;;;;;;26.50;17.35;;;11.60;1.00;;;;;;5052081;28;20031;-49
2023/03/18 04:27:12;;;;;;;24.83;16.65;;;11.60;1.00;;;;;;5053914;28;20398;-49
2023/03/18 04:29:38;;;;;;;20.00;14.90;;;11.50;1.00;;;;;;5052167;28;20037;-52
2023/03/18 04:32:04;;;;;;;19.97;14.77;;;11.60;1.00;;;;;;5053502;28;20037;-50
2023/03/18 04:34:30;;;;;;;28.95;13.95;;;11.60;1.00;;;;;;5052680;28;20105;-48
2023/03/18 04:36:56;;;;;;;19.77;15.37;;;11.50;1.00;;;;;;5052775;28;20415;-52
2023/03/18 04:39:23;;;;;;;23.07;14.67;;;11.50;1.00;;;;;;5051391;28;20035;-51
2023/03/18 04:41:49;;;;;;;23.33;14.43;;;11.50;1.00;;;;;;5054047;28;20496;-51
2023/03/18 04:44:16;;;;;;;20.60;13.17;;;11.50;1.00;;;;;;5052598;28;20100;-48
2023/03/18 04:46:42;;;;;;;19.90;13.87;;;11.50;1.00;;;;;;5051641;28;20506;-48
2023/03/18 04:49:09;;;;;;;19.93;14.07;;;11.50;1.00;;;;;;5050689;28;20366;-47
2023/03/18 04:51:36;;;;;;;17.70;12.83;;;11.50;1.00;;;;;;5051695;28;20021;-49
2023/03/18 04:54:02;;;;;;;17.15;13.55;;;11.50;1.00;;;;;;5052620;28;20065;-47
2023/03/18 04:56:28;;;;;;;18.80;13.43;;;11.50;1.00;;;;;;5052427;28;20045;-52
2023/03/18 04:58:53;;;;;;;19.93;13.60;;;11.50;1.00;;;;;;5044080;28;20100;-50
2023/03/18 05:01:19;;;;;;;18.50;13.27;;;11.40;1.00;;;;;;5053624;28;20081;-48
2023/03/18 05:03:45;;;;;;;22.57;13.20;;;11.40;1.00;;;;;;5052295;28;20496;-49
2023/03/18 05:06:21;;;;;;;29.67;16.57;;;11.40;1.00;;;;;;5053564;28;20537;-53
2023/03/18 05:08:47;;;;;;;22.27;15.63;;;11.40;1.00;;;;;;5049837;28;20103;-47
2023/03/18 05:11:13;;;;;;;18.33;14.17;;;11.40;1.00;;;;;;5050538;28;20100;-48
2023/03/18 05:13:39;;;;;;;19.47;14.83;;;11.30;1.00;;;;;;5053059;28;20049;-52
2023/03/18 05:16:05;;;;;;;20.55;15.18;;;11.40;1.00;;;;;;5051204;28;20179;-50
2023/03/18 05:18:32;;;;;;;21.08;15.05;;;11.40;1.00;;;;;;5053261;28;20049;-48
2023/03/18 05:20:58;;;;;;;19.87;15.27;;;11.40;1.00;;;;;;5051431;28;20492;-53
2023/03/18 05:23:24;;;;;;;22.13;15.10;;;11.30;1.00;;;;;;5053044;28;20051;-50
2023/03/18 05:25:50;;;;;;;20.00;14.40;;;11.40;1.00;;;;;;5050134;28;20056;-49
2023/03/18 05:28:17;;;;;;;21.33;15.38;;;11.40;1.00;;;;;;5049811;28;20515;-54
2023/03/18 05:30:42;;;;;;;18.33;14.63;;;11.40;1.00;;;;;;5048508;28;20674;-49
2023/03/18 05:33:08;;;;;;;20.57;14.27;;;11.40;1.00;;;;;;5053288;28;20032;-49
2023/03/18 05:35:35;;;;;;;17.80;14.55;;;11.40;1.00;;;;;;5052063;28;20070;-49
2023/03/18 05:38:01;;;;;;;20.10;14.90;;;11.40;1.00;;;;;;5052261;28;20033;-48
2023/03/18 05:40:26;;;;;;;19.63;15.50;;;11.40;1.00;;;;;;5051237;28;20100;-52
2023/03/18 05:42:52;;;;;;;22.05;14.95;;;11.30;1.00;;;;;;5051816;28;20037;-49
2023/03/18 05:45:18;;;;;;;20.23;14.50;;;11.30;1.00;;;;;;5050273;28;20090;-50
2023/03/18 05:47:44;;;;;;;19.37;15.43;;;11.30;1.00;;;;;;5052717;28;20017;-50
2023/03/18 05:50:10;;;;;;;21.03;15.23;;;11.30;1.00;;;;;;5051797;28;20122;-49
2023/03/18 05:52:37;;;;;;;18.83;15.63;;;11.30;1.00;;;;;;5052922;28;20021;-51
2023/03/18 05:55:03;;;;;;;24.33;16.07;;;11.30;1.00;;;;;;5051612;28;20448;-54
2023/03/18 05:57:29;;;;;;;21.35;15.45;;;11.20;1.00;;;;;;5052499;28;20505;-49
2023/03/18 05:59:55;;;;;;;18.80;14.87;;;11.30;1.00;;;;;;5042400;28;20018;-48
2023/03/18 06:02:20;;;;;;;22.50;16.20;;;11.30;1.00;;;;;;5051741;28;20044;-48
2023/03/18 06:04:46;;;;;;;20.48;16.55;;;11.30;1.00;;;;;;5054492;28;20033;-49
2023/03/18 06:07:12;;;;;;;26.97;17.27;;;11.30;1.00;;;;;;5056768;28;20025;-52
2023/03/18 06:09:38;;;;;;;19.80;15.60;;;11.30;1.00;;;;;;5048755;28;20057;-50
2023/03/18 06:12:04;;;;;;;23.97;15.77;;;11.30;1.00;;;;;;5038054;28;20017;-49
2023/03/18 06:14:30;;;;;;;23.77;17.00;;;11.30;1.00;;;;;;5055269;28;20045;-48
2023/03/18 06:16:56;;;;;;;20.70;16.20;;;11.30;1.00;;;;;;5054624;28;20049;-50
2023/03/18 06:19:21;;;;;;;20.63;16.93;;;11.30;1.00;;;;;;5054058;28;20108;-47
2023/03/18 06:21:47;;;;;;;20.70;15.93;;;11.30;1.00;;;;;;5056319;28;20025;-49
2023/03/18 06:24:14;;;;;;;22.43;16.43;;;11.30;1.00;;;;;;5053421;28;20099;-49
2023/03/18 06:26:40;;;;;;;24.03;17.07;;;11.30;1.00;;;;;;5055446;28;20115;-54
2023/03/18 06:29:06;;;;;;;23.13;16.40;;;11.40;1.00;;;;;;5056330;28;20032;-50
2023/03/18 06:31:33;;;;;;;22.35;16.75;;;11.30;1.00;;;;;;5055354;28;20098;-47
2023/03/18 06:33:59;;;;;;;23.17;16.73;;;11.30;1.00;;;;;;5054574;28;20120;-53
2023/03/18 06:36:25;;;;;;;21.65;15.90;;;11.30;1.00;;;;;;5049585;28;20112;-47
2023/03/18 06:38:52;;;;;;;21.63;16.77;;;11.30;1.00;;;;;;5046095;28;20033;-49
2023/03/18 06:41:18;;;;;;;21.33;16.90;;;11.20;1.00;;;;;;5053283;28;20433;-50
2023/03/18 06:43:46;;;;;;;27.17;17.00;;;11.30;1.00;;;;;;5054087;28;20033;-49
2023/03/18 06:46:13;;;;;;;22.08;18.10;;;11.30;1.00;;;;;;5051482;28;20024;-52
2023/03/18 06:48:39;;;;;;;28.40;17.93;;;11.30;1.00;;;;;;5052542;28;20037;-50
2023/03/18 06:51:06;;;;;;;24.60;18.00;;;11.30;1.00;;;;;;5047044;28;20033;-49
2023/03/18 06:53:32;;;;;;;23.70;17.95;;;11.30;1.00;;;;;;5052717;28;20028;-49
2023/03/18 06:55:58;;;;;;;26.37;18.17;;;11.30;1.00;;;;;;5054694;28;20032;-55
2023/03/18 06:58:24;;;;;;;24.57;17.80;;;11.40;1.00;;;;;;5055841;28;20017;-49
2023/03/18 07:00:50;;;;;;;22.70;18.33;;;11.40;1.00;;;;;;5053356;28;20029;-47
2023/03/18 07:03:16;;;;;;;23.13;18.03;;;11.40;1.00;;;;;;5054343;28;20037;-48
2023/03/18 07:05:42;;;;;;;22.67;17.93;;;11.40;1.00;;;;;;5055738;28;20466;-49
2023/03/18 07:08:08;;;;;;;26.45;18.52;;;11.50;1.00;;;;;;5054224;28;20424;-49
2023/03/18 07:10:34;;;;;;;30.47;19.97;;;11.50;1.00;;;;;;5052977;28;20027;-50
2023/03/18 07:13:00;;;;;;;28.63;19.77;;;11.50;1.00;;;;;;5054693;28;20036;-52
2023/03/18 07:15:27;;;;;;;23.10;18.85;;;11.50;1.00;;;;;;5052305;28;20059;-50
2023/03/18 07:17:53;;;;;;;29.75;21.23;;;11.50;1.00;;;;;;5054327;28;20055;-48
2023/03/18 07:20:21;;;;;;;26.90;19.83;;;11.50;1.00;;;;;;5054276;28;20363;-52
2023/03/18 07:22:47;;;;;;;23.83;18.57;;;11.50;1.00;;;;;;5041398;28;20065;-48
2023/03/18 07:25:12;;;;;;;20.27;17.45;;;11.50;1.00;;;;;;5054138;28;20536;-48
2023/03/18 07:27:39;;;;;;;22.23;17.77;;;11.60;1.00;;;;;;5055298;28;20028;-52
2023/03/18 07:30:08;;;;;;;23.40;18.87;;;11.60;1.00;;;;;;5053748;28;20108;-50
2023/03/18 07:32:35;;;;;;;23.75;18.13;;;11.50;1.00;;;;;;5054211;28;20029;-51
2023/03/18 07:35:03;;;;;;;26.52;19.17;;;11.60;1.00;;;;;;5053568;28;20475;-51
2023/03/18 07:37:29;;;;;;;22.50;17.23;;;11.60;1.00;;;;;;5040103;28;20525;-53
2023/03/18 07:39:55;;;;;;;26.00;18.50;;;11.60;1.00;;;;;;5054705;28;20036;-51
2023/03/18 07:42:21;;;;;;;24.33;17.52;;;11.60;1.00;;;;;;5054911;28;20383;-49
2023/03/18 07:44:46;;;;;;;23.77;17.40;;;11.70;1.00;;;;;;5051409;28;20026;-49
2023/03/18 07:47:13;;;;;;;26.42;19.58;;;11.70;1.00;;;;;;5054818;28;20036;-53
2023/03/18 07:49:40;;;;;;;23.55;18.48;;;11.70;1.00;;;;;;5052940;28;20029;-50
2023/03/18 07:52:07;;;;;;;27.33;19.27;;;11.70;1.00;;;;;;5055067;28;20111;-52
2023/03/18 07:54:33;;;;;;;23.48;18.10;;;11.70;1.00;;;;;;5053562;28;20024;-50
2023/03/18 07:56:59;;;;;;;23.23;18.15;;;11.80;1.00;;;;;;5054882;28;20041;-54
2023/03/18 07:59:24;;;;;;;24.08;17.92;;;11.80;1.00;;;;;;5049573;28;20021;-49
2023/03/18 08:01:50;;;;;;;26.08;18.83;;;11.80;1.00;;;;;;5054348;28;20364;-51
2023/03/18 08:04:16;;;;;;;22.45;18.13;;;11.80;1.00;;;;;;5053347;28;20111;-50
2023/03/18 08:06:42;;;;;;;24.27;18.27;;;11.90;1.00;;;;;;5054281;28;20029;-51
2023/03/18 08:09:08;;;;;;;26.10;19.08;;;11.90;1.00;;;;;;5051455;28;20017;-52
2023/03/18 08:11:34;;;;;;;22.65;18.15;;;11.90;1.00;;;;;;5040488;28;20033;-51
2023/03/18 08:14:00;;;;;;;23.73;18.65;;;11.90;1.00;;;;;;5052274;28;20117;-49
2023/03/18 08:16:25;;;;;;;24.65;19.17;;;12.00;1.00;;;;;;5046703;28;20037;-52
2023/03/18 08:18:52;;;;;;;26.02;18.65;;;12.00;1.00;;;;;;5054094;28;20024;-49
2023/03/18 08:21:18;;;;;;;21.42;18.70;;;12.00;1.00;;;;;;5045575;28;20116;-48
2023/03/18 08:23:44;;;;;;;24.77;19.08;;;12.00;1.00;;;;;;5047902;28;20500;-51
2023/03/18 08:26:10;;;;;;;26.92;19.05;;;12.00;1.00;;;;;;5052785;28;20148;-48
2023/03/18 08:28:36;;;;;;;24.48;18.88;;;12.10;1.00;;;;;;5053939;28;20029;-49
2023/03/18 08:31:03;;;;;;;24.95;19.40;;;12.10;1.00;;;;;;5048563;28;20028;-48
2023/03/18 08:33:29;;;;;;;24.95;20.02;;;12.10;1.00;;;;;;5052843;28;20029;-50
2023/03/18 08:35:56;;;;;;;26.42;19.77;;;12.20;1.00;;;;;;5053910;28;20077;-48
2023/03/18 08:38:23;;;;;;;27.15;19.23;;;12.20;1.00;;;;;;5052863;28;20033;-49
2023/03/18 08:40:49;;;;;;;24.50;18.77;;;12.20;1.00;;;;;;5053664;28;20103;-48
2023/03/18 08:43:15;;;;;;;26.58;18.95;;;12.20;1.00;;;;;;5051186;28;20043;-48
2023/03/18 08:45:40;;;;;;;23.95;18.60;;;12.30;1.00;;;;;;5050836;28;20025;-50
2023/03/18 08:48:06;;;;;;;25.05;19.33;;;12.30;1.00;;;;;;5053714;28;20067;-50
2023/03/18 08:50:34;;;;;;;27.45;18.73;;;12.30;1.00;;;;;;5048204;28;20099;-48
2023/03/18 08:53:00;;;;;;;23.20;17.17;;;12.40;1.00;;;;;;5050222;28;20406;-49
2023/03/18 08:55:32;;;;;;;26.60;17.95;;;12.40;1.00;;;;;;5052367;28;20100;-48
2023/03/18 08:57:58;;;;;;;24.55;18.65;;;12.40;1.00;;;;;;5053307;28;20033;-49
2023/03/18 09:00:25;;;;;;;24.02;16.48;;;12.40;1.00;;;;;;5052241;28;20025;-49
2023/03/18 09:02:51;;;;;;;23.20;17.02;;;12.50;1.00;;;;;;5052694;28;20527;-49
2023/03/18 09:05:18;;;;;;;20.13;16.92;;;12.60;1.00;;;;;;5052106;28;20017;-50
2023/03/18 09:08:09;;;;;;;22.65;17.23;;;12.60;1.00;;;;;;5053577;28;20025;-50
2023/03/18 09:10:34;;;;;;;24.13;17.88;;;12.60;1.00;;;;;;5048296;28;20378;-46
2023/03/18 09:13:00;;;;;;;23.15;17.40;;;12.70;1.00;;;;;;5053224;28;20025;-50
2023/03/18 09:15:26;;;;;;;22.08;17.67;;;12.70;1.00;;;;;;5051760;28;20064;-47
2023/03/18 09:17:52;;;;;;;24.23;18.88;;;12.80;1.00;;;;;;5051272;28;20033;-49
2023/03/18 09:20:18;;;;;;;23.15;18.67;;;12.80;1.00;;;;;;5050072;28;20074;-46
2023/03/18 09:22:45;;;;;;;20.58;16.92;;;12.90;1.00;;;;;;5053517;28;20155;-51
2023/03/18 09:25:12;;;;;;;21.88;17.60;;;12.90;1.00;;;;;;5051281;28;20029;-51
2023/03/18 09:27:38;;;;;;;19.95;16.23;;;12.90;1.00;;;;;;5049296;28;20032;-50
2023/03/18 09:30:04;;;;;;;21.02;16.55;;;12.90;1.00;;;;;;5046254;28;20025;-49
2023/03/18 09:32:30;;;;;;;19.88;16.02;;;13.00;1.00;;;;;;5051765;28;20017;-49
2023/03/18 09:34:56;;;;;;;19.38;16.20;;;13.00;1.00;;;;;;5051568;28;20326;-51
2023/03/18 09:37:22;;;;;;;21.52;15.90;;;13.10;1.00;;;;;;5049375;28;20072;-48
2023/03/18 09:39:47;;;;;;;19.92;15.13;;;13.10;1.00;;;;;;5050229;28;20502;-48
2023/03/18 09:42:21;;;;;;;21.52;15.05;;;13.20;1.00;;;;;;5052714;28;20037;-51
2023/03/18 09:45:02;;;;;;;19.85;14.93;;;13.10;1.00;;;;;;5050583;28;20021;-48
2023/03/18 09:47:27;;;;;;;19.67;14.63;;;13.10;1.00;;;;;;5052826;28;20111;-49
2023/03/18 09:49:58;;;;;;;20.33;14.98;;;13.20;1.00;;;;;;5044888;28;20104;-52
2023/03/18 09:52:47;;;;;;;18.55;14.90;;;13.30;1.00;;;;;;5049505;28;20033;-53
2023/03/18 09:55:38;;;;;;;21.05;14.80;;;13.30;1.00;;;;;;5037920;28;20048;-49
2023/03/18 09:58:16;;;;;;;21.45;15.90;;;13.40;1.00;;;;;;5049566;28;20065;-49
2023/03/18 10:00:43;;;;;;;18.65;14.48;;;13.50;1.00;;;;;;5051854;28;20033;-51
2023/03/18 10:03:08;;;;;;;19.33;14.93;;;13.50;1.00;;;;;;5039062;28;20497;-48
2023/03/18 10:05:57;;;;;;;18.75;15.02;;;13.60;1.00;;;;;;5051819;28;20048;-48
2023/03/18 10:08:29;;;;;;;48.15;16.23;;;13.70;1.00;;;;;;5049153;28;20112;-49
2023/03/18 10:10:55;;;;;;;20.30;15.18;;;13.80;1.00;;;;;;5047428;28;20029;-49
2023/03/18 10:14:09;;;;;;;18.20;14.48;;;13.80;1.00;;;;;;5050998;28;20036;-48
2023/03/18 10:16:54;;;;;;;19.77;14.57;;;13.80;1.00;;;;;;5035196;28;20037;-49
2023/03/18 10:19:20;;;;;;;15.55;13.68;;;13.90;1.00;;;;;;5048624;28;20033;-48
2023/03/18 10:21:53;;;;;;;19.60;14.98;;;14.00;1.00;;;;;;5037161;28;20487;-50
2023/03/18 10:24:42;;;;;;;17.33;15.20;;;14.10;1.00;;;;;;5051169;28;20044;-58
2023/03/18 10:27:15;;;;;;;19.95;15.98;;;14.10;1.00;;;;;;5052747;28;20402;-48
2023/03/18 10:29:49;;;;;;;19.55;16.23;;;14.10;1.00;;;;;;5044169;28;20075;-52
2023/03/18 10:32:50;;;;;;;20.00;15.52;;;14.10;1.00;;;;;;5046472;28;20025;-52
2023/03/18 10:35:51;;;;;;;17.85;15.07;;;14.20;1.00;;;;;;5037674;28;20045;-53
2023/03/18 10:38:35;;;;;;;20.23;15.00;;;14.30;1.00;;;;;;5042206;28;20084;-54
2023/03/18 10:41:11;;;;;;;17.85;13.35;;;14.40;1.00;;;;;;5043844;28;20029;-54
2023/03/18 10:43:37;;;;;;;18.95;14.93;;;14.40;1.00;;;;;;5045889;28;20032;-48
2023/03/18 10:46:06;;;;;;;20.27;14.93;;;14.40;1.00;;;;;;5044810;28;20033;-52
2023/03/18 10:48:33;;;;;;;16.40;14.48;;;14.50;1.00;;;;;;5048107;28;20033;-50
2023/03/18 10:51:20;;;;;;;17.88;15.68;;;14.50;1.00;;;;;;5049407;28;20049;-50
2023/03/18 10:54:14;;;;;;;19.20;15.25;;;14.60;1.00;;;;;;5045850;28;20084;-52
2023/03/18 10:56:40;;;;;;;21.77;14.82;;;14.70;1.00;;;;;;5048539;28;20040;-51
2023/03/18 10:59:21;;;;;;;17.48;14.52;;;14.70;1.00;;;;;;5044281;28;20045;-54
2023/03/18 11:01:51;;;;;;;18.60;15.80;;;14.70;1.00;;;;;;5045966;28;20124;-51
2023/03/18 11:04:22;;;;;;;18.92;15.27;;;14.80;1.00;;;;;;5045554;28;20063;-50
2023/03/18 11:06:58;;;;;;;17.58;14.43;;;14.90;1.00;;;;;;5044426;28;20029;-50
2023/03/18 11:09:31;;;;;;;19.33;14.60;;;14.90;1.00;;;;;;5044568;28;20017;-54
2023/03/18 11:12:15;;;;;;;17.98;13.65;;;15.00;1.00;;;;;;5045848;28;20032;-50
2023/03/18 11:14:47;;;;;;;18.02;15.90;;;15.00;1.00;;;;;;5043679;28;20416;-55
2023/03/18 11:17:47;;;;;;;20.85;15.88;;;15.10;1.00;;;;;;5047750;28;20186;-50
2023/03/18 11:20:24;;;;;;;19.73;15.60;;;15.20;1.00;;;;;;5045897;28;20116;-61
2023/03/18 11:22:56;;;;;;;24.42;17.08;;;15.20;1.00;;;;;;5037306;28;20028;-50
2023/03/18 11:25:25;;;;;;;18.60;16.60;;;15.30;1.00;;;;;;5042728;28;20111;-48
2023/03/18 11:28:19;;;;;;;20.20;16.77;;;15.40;1.00;;;;;;5041659;28;20112;-52
2023/03/18 11:30:48;;;;;;;19.58;16.38;;;15.50;1.00;;;;;;5033436;28;20069;-48
2023/03/18 11:33:16;;;;;;;24.83;18.02;;;15.60;1.00;;;;;;5051112;28;20066;-52
2023/03/18 11:35:51;;;;;;;18.67;16.27;;;15.50;1.00;;;;;;5051875;28;20036;-50
2023/03/18 11:38:20;;;;;;;27.15;20.55;;;15.60;1.00;;;;;;5054786;28;20167;-49
2023/03/18 11:40:46;;;;;;;20.33;16.90;;;15.70;1.00;;;;;;5052678;28;20111;-49
2023/03/18 11:43:17;;;;;;;18.98;15.98;;;15.70;1.00;;;;;;5046461;28;20125;-53
2023/03/18 11:45:46;;;;;;;21.95;16.80;;;15.80;1.00;;;;;;5054289;28;20496;-50
2023/03/18 11:48:27;;;;;;;19.88;16.25;;;15.90;1.00;;;;;;5041339;28;20025;-50
2023/03/18 11:51:04;;;;;;;22.90;17.85;;;16.00;1.00;;;;;;5046410;28;20033;-50
2023/03/18 11:53:36;;;;;;;23.05;17.83;;;16.10;1.00;;;;;;5045135;28;20021;-48
2023/03/18 11:56:04;;;;;;;25.55;18.67;;;16.30;1.00;;;;;;5053498;28;20586;-50
2023/03/18 11:59:00;;;;;;;21.08;17.35;;;16.30;1.00;;;;;;5044706;28;20076;-48
2023/03/18 12:01:26;;;;;;;23.50;17.85;;;16.50;1.00;;;;;;5052808;28;20405;-51
2023/03/18 12:04:12;;;;;;;21.90;17.08;;;16.60;1.00;;;;;;5052545;28;20029;-50
2023/03/18 12:07:04;;;;;;;21.00;16.73;;;16.70;1.00;;;;;;5040842;28;20037;-50
2023/03/18 12:09:32;;;;;;;20.52;16.98;;;16.70;1.00;;;;;;5035609;28;20037;-50
2023/03/18 12:12:17;;;;;;;20.45;16.58;;;16.70;1.00;;;;;;5053141;28;20021;-46
2023/03/18 12:14:45;;;;;;;;;;;17.00;1.00;;;;;;5053690;28;20048;-49
2023/03/18 12:17:26;;;;;;;21.45;17.33;;;17.10;1.00;;;;;;5054072;28;19970;-47
2023/03/18 12:19:57;;;;;;;21.50;16.90;;;17.20;1.00;;;;;;5050768;28;20104;-47
2023/03/18 12:22:47;;;;;;;19.98;16.33;;;17.40;1.00;;;;;;5054348;28;20041;-47
2023/03/18 12:25:37;;;;;;;21.67;16.42;;;17.40;1.00;;;;;;5050895;28;20021;-48
2023/03/18 12:28:20;;;;;;;20.05;16.58;;;17.60;1.00;;;;;;5034257;28;20018;-47
2023/03/18 12:30:57;;;;;;;21.17;16.83;;;17.70;1.00;;;;;;5047947;28;20616;-46
2023/03/18 12:33:34;;;;;;;20.73;16.60;;;17.80;1.00;;;;;;5054084;28;20036;-46
2023/03/18 12:36:05;;;;;;;20.60;15.70;;;18.10;1.00;;;;;;5043946;28;20363;-49
2023/03/18 12:38:37;;;;;;;20.77;15.23;;;18.20;1.00;;;;;;5041754;28;20033;-52
2023/03/18 12:41:06;;;;;;;18.75;14.50;;;18.30;1.00;;;;;;5050640;28;20029;-47
2023/03/18 12:44:07;;;;;;;19.20;14.10;;;18.40;1.00;;;;;;5051693;28;20021;-47
2023/03/18 12:46:35;;;;;;;16.50;14.63;;;18.70;1.00;;;;;;5041554;28;20133;-52
2023/03/18 12:49:14;;;;;;;18.15;14.85;;;19.10;1.00;;;;;;5050983;28;20051;-48
2023/03/18 12:51:48;;;;;;;21.20;14.93;;;19.70;1.00;;;;;;5040019;28;20021;-49